createdAt,value
2023-03-03T00:02:17.930Z,23.48
2023-03-03T00:04:44.864Z,25.80
2023-03-03T00:07:12.080Z,22.67
2023-03-03T00:09:39.010Z,26.60
2023-03-03T00:12:25.848Z,24.45
2023-03-03T00:14:52.839Z,24.55
2023-03-03T00:17:25.191Z,22.13
2023-03-03T00:19:53.060Z,26.13
2023-03-03T00:22:30.587Z,23.13
2023-03-03T00:25:19.825Z,23.95
2023-03-03T00:27:46.823Z,24.58
2023-03-03T00:30:24.406Z,27.08
2023-03-03T00:32:53.198Z,25.75
2023-03-03T00:35:20.251Z,26.63
2023-03-03T00:37:47.203Z,24.35
2023-03-03T00:40:23.978Z,25.67
2023-03-03T00:42:55.166Z,25.17
2023-03-03T00:45:50.483Z,24.77
2023-03-03T00:48:28.486Z,22.90
2023-03-03T00:50:57.980Z,23.73
2023-03-03T00:53:27.275Z,24.42
2023-03-03T00:55:54.634Z,23.70
2023-03-03T00:58:22.954Z,24.15
2023-03-03T01:00:54.025Z,26.00
2023-03-03T01:03:25.405Z,25.93
2023-03-03T01:05:53.396Z,18.33
2023-03-03T01:08:22.322Z,25.38
2023-03-03T01:10:51.557Z,26.20
2023-03-03T01:13:22.108Z,25.33
2023-03-03T01:15:49.199Z,25.80
2023-03-03T01:18:16.563Z,25.15
2023-03-03T01:20:43.583Z,24.77
2023-03-03T01:23:10.637Z,24.48
2023-03-03T01:25:37.735Z,22.30
2023-03-03T01:28:04.920Z,22.85
2023-03-03T01:30:34.658Z,19.70
2023-03-03T01:33:01.621Z,20.27
2023-03-03T01:35:33.394Z,17.98
2023-03-03T01:38:00.323Z,18.13
2023-03-03T01:40:30.078Z,19.33
2023-03-03T01:43:00.249Z,17.38
2023-03-03T01:45:43.002Z,17.58
2023-03-03T01:48:16.367Z,17.35
2023-03-03T01:50:50.772Z,16.20
2023-03-03T01:53:22.140Z,15.60
2023-03-03T01:55:50.957Z,10.90
2023-03-03T01:58:30.053Z,15.30
2023-03-03T02:01:03.241Z,15.07
2023-03-03T02:03:30.509Z,15.75
2023-03-03T02:06:01.053Z,14.27
2023-03-03T02:08:37.094Z,14.05
2023-03-03T02:11:05.208Z,13.65
2023-03-03T02:13:32.312Z,13.32
2023-03-03T02:16:00.046Z,15.30
2023-03-03T02:18:31.558Z,15.25
2023-03-03T02:20:58.667Z,14.73
2023-03-03T02:23:49.780Z,14.52
2023-03-03T02:26:18.841Z,14.55
2023-03-03T02:28:45.880Z,15.10
2023-03-03T02:31:16.459Z,13.85
2023-03-03T02:33:45.972Z,14.50
2023-03-03T02:36:17.921Z,13.75
2023-03-03T02:39:03.763Z,15.30
2023-03-03T02:41:40.717Z,14.20
2023-03-03T02:44:12.127Z,13.32
2023-03-03T02:46:41.959Z,15.13
2023-03-03T02:49:10.372Z,14.50
2023-03-03T02:51:37.971Z,15.50
2023-03-03T02:54:08.244Z,15.27
2023-03-03T02:56:35.439Z,13.52
2023-03-03T02:59:02.548Z,14.48
2023-03-03T03:01:32.139Z,15.65
2023-03-03T03:03:59.401Z,15.98
2023-03-03T03:06:28.526Z,15.70
2023-03-03T03:11:41.616Z,13.02
2023-03-03T03:14:09.362Z,13.82
2023-03-03T03:16:36.500Z,14.27
2023-03-03T03:19:04.211Z,12.63
2023-03-03T03:21:31.596Z,13.45
2023-03-03T03:24:00.848Z,13.52
2023-03-03T03:26:27.774Z,13.18
2023-03-03T03:28:55.027Z,12.40
2023-03-03T03:31:22.811Z,12.77
2023-03-03T03:33:49.737Z,12.20
2023-03-03T03:36:17.128Z,12.32
2023-03-03T03:38:44.143Z,12.75
2023-03-03T03:41:12.900Z,14.35
2023-03-03T03:43:40.134Z,12.55
2023-03-03T03:46:08.084Z,12.55
2023-03-03T03:48:35.545Z,12.18
2023-03-03T03:51:04.895Z,11.20
2023-03-03T03:53:31.848Z,11.38
2023-03-03T03:55:58.739Z,12.50
2023-03-03T03:58:28.270Z,11.63
2023-03-03T04:00:55.711Z,12.23
2023-03-03T04:03:25.330Z,12.35
2023-03-03T04:05:53.674Z,12.15
2023-03-03T04:08:20.714Z,12.02
2023-03-03T04:10:49.717Z,12.32
2023-03-03T04:13:16.671Z,12.57
2023-03-03T04:15:43.632Z,12.40
2023-03-03T04:18:10.582Z,12.85
2023-03-03T04:20:39.714Z,12.90
2023-03-03T04:23:06.610Z,12.10
2023-03-03T04:25:33.626Z,13.32
2023-03-03T04:28:00.493Z,15.02
2023-03-03T04:30:27.424Z,14.45
2023-03-03T04:32:54.418Z,13.60
2023-03-03T04:35:21.457Z,15.63
2023-03-03T04:37:48.376Z,16.75
2023-03-03T04:40:16.516Z,15.63
2023-03-03T04:42:43.601Z,17.75
2023-03-03T04:45:13.089Z,18.48
2023-03-03T04:47:40.394Z,16.65
2023-03-03T04:50:08.128Z,19.42
2023-03-03T04:52:35.105Z,16.55
2023-03-03T04:55:01.993Z,16.65
2023-03-03T04:57:28.860Z,16.92
2023-03-03T04:59:56.421Z,17.55
2023-03-03T05:02:23.323Z,18.70
2023-03-03T05:04:50.274Z,18.08
2023-03-03T05:07:19.265Z,16.38
2023-03-03T05:09:46.158Z,16.50
2023-03-03T05:12:13.060Z,14.93
2023-03-03T05:14:40.027Z,12.98
2023-03-03T05:17:06.929Z,11.00
2023-03-03T05:19:35.000Z,10.40
2023-03-03T05:22:02.197Z,10.82
2023-03-03T05:24:29.708Z,10.93
2023-03-03T05:26:56.631Z,10.05
2023-03-03T05:29:23.567Z,10.18
2023-03-03T05:31:50.852Z,10.40
2023-03-03T05:34:17.876Z,10.70
2023-03-03T05:36:44.813Z,10.38
2023-03-03T05:39:11.705Z,9.10
2023-03-03T05:41:38.872Z,9.85
2023-03-03T05:44:05.965Z,12.63
2023-03-03T05:46:32.918Z,10.70
2023-03-03T05:49:02.318Z,10.20
2023-03-03T05:51:29.412Z,10.05
2023-03-03T05:53:56.647Z,10.50
2023-03-03T05:56:23.762Z,9.93
2023-03-03T05:58:50.814Z,11.38
2023-03-03T06:01:17.949Z,10.93
2023-03-03T06:03:44.871Z,10.85
2023-03-03T06:06:12.445Z,10.30
2023-03-03T06:08:39.376Z,10.95
2023-03-03T06:11:06.241Z,11.35
2023-03-03T06:13:33.130Z,11.90
2023-03-03T06:16:00.060Z,10.80
2023-03-03T06:18:29.555Z,11.82
2023-03-03T06:20:56.513Z,11.90
2023-03-03T06:23:23.557Z,10.73
2023-03-03T06:25:50.533Z,10.95
2023-03-03T06:28:17.382Z,10.88
2023-03-03T06:30:44.422Z,11.13
2023-03-03T06:33:11.954Z,12.32
2023-03-03T06:35:38.908Z,12.10
2023-03-03T06:38:05.920Z,11.02
2023-03-03T06:40:32.820Z,11.35
2023-03-03T06:42:59.685Z,11.18
2023-03-03T06:45:26.676Z,12.23
2023-03-03T06:47:53.585Z,12.02
2023-03-03T06:50:21.484Z,13.77
2023-03-03T06:52:48.607Z,12.90
2023-03-03T06:55:22.982Z,13.30
2023-03-03T06:57:49.913Z,12.32
2023-03-03T07:00:20.371Z,13.48
2023-03-03T07:03:21.993Z,13.10
2023-03-03T07:05:48.870Z,13.70
2023-03-03T07:08:18.298Z,13.10
2023-03-03T07:10:46.154Z,12.77
2023-03-03T07:13:26.202Z,14.13
2023-03-03T07:15:54.573Z,14.52
2023-03-03T07:18:55.306Z,13.70
2023-03-03T07:21:33.719Z,15.00
2023-03-03T07:24:02.431Z,14.52
2023-03-03T07:26:33.071Z,14.35
2023-03-03T07:29:15.612Z,13.55
2023-03-03T07:31:46.836Z,13.13
2023-03-03T07:34:28.234Z,15.18
2023-03-03T07:36:59.621Z,14.48
2023-03-03T07:39:29.575Z,15.00
2023-03-03T07:42:16.433Z,15.32
2023-03-03T07:44:43.414Z,14.88
2023-03-03T07:47:30.002Z,15.32
2023-03-03T07:50:08.331Z,14.50
2023-03-03T07:52:44.474Z,14.80
2023-03-03T07:55:20.723Z,16.95
2023-03-03T07:57:47.757Z,17.95
2023-03-03T08:00:17.707Z,16.65
2023-03-03T08:02:56.562Z,14.38
2023-03-03T08:05:47.234Z,14.50
2023-03-03T08:08:37.156Z,16.15
2023-03-03T08:11:06.020Z,14.82
2023-03-03T08:13:42.172Z,14.70
2023-03-03T08:16:12.170Z,14.77
2023-03-03T08:18:53.502Z,15.55
2023-03-03T08:21:27.052Z,26.83
2023-03-03T08:23:54.229Z,15.82
2023-03-03T08:26:22.449Z,9.13
2023-03-03T08:28:49.786Z,7.55
2023-03-03T08:31:28.081Z,8.00
2023-03-03T08:34:01.771Z,8.73
2023-03-03T08:36:28.636Z,8.65
2023-03-03T08:38:55.698Z,9.90
2023-03-03T08:41:22.701Z,9.32
2023-03-03T08:43:49.586Z,9.02
2023-03-03T08:46:16.521Z,8.38
2023-03-03T08:48:43.508Z,7.07
2023-03-03T08:51:10.388Z,8.27
2023-03-03T08:53:42.713Z,6.25
2023-03-03T08:56:10.652Z,6.72
2023-03-03T08:58:37.784Z,7.32
2023-03-03T09:01:05.144Z,8.38
2023-03-03T09:03:32.494Z,7.85
2023-03-03T09:05:59.745Z,8.93
2023-03-03T09:08:26.838Z,8.18
2023-03-03T09:10:53.771Z,8.77
2023-03-03T09:13:21.029Z,8.85
2023-03-03T09:15:49.064Z,9.10
2023-03-03T09:18:22.929Z,9.65
2023-03-03T09:20:51.661Z,10.60
2023-03-03T09:23:42.828Z,12.20
2023-03-03T09:26:48.421Z,10.85
2023-03-03T09:29:15.787Z,9.20
2023-03-03T09:31:57.572Z,9.25
2023-03-03T09:34:35.195Z,7.07
2023-03-03T09:37:02.600Z,8.65
2023-03-03T09:39:31.219Z,7.68
2023-03-03T09:41:59.353Z,7.20
2023-03-03T09:44:56.995Z,7.25
2023-03-03T09:47:51.384Z,8.07
2023-03-03T09:50:27.454Z,8.35
2023-03-03T09:53:09.388Z,6.60
2023-03-03T09:56:08.199Z,7.57
2023-03-03T09:58:53.765Z,7.57
2023-03-03T10:01:58.442Z,6.70
2023-03-03T10:04:42.819Z,6.72
2023-03-03T10:07:23.678Z,6.53
2023-03-03T10:10:24.017Z,7.20
2023-03-03T10:12:56.712Z,6.88
2023-03-03T10:16:18.137Z,7.32
2023-03-03T10:18:56.362Z,7.40
2023-03-03T10:21:44.485Z,8.35
2023-03-03T10:24:40.918Z,9.07
2023-03-03T10:27:24.426Z,10.02
2023-03-03T10:30:00.681Z,10.27
2023-03-03T10:32:31.431Z,10.27
2023-03-03T10:35:01.474Z,9.82
2023-03-03T10:37:53.227Z,10.07
2023-03-03T10:40:40.610Z,7.47
2023-03-03T10:43:29.832Z,9.05
2023-03-03T10:46:02.255Z,10.27
2023-03-03T10:48:41.292Z,10.55
2023-03-03T10:51:27.058Z,9.85
2023-03-03T10:54:09.511Z,9.73
2023-03-03T10:59:36.341Z,9.52
2023-03-03T11:02:26.534Z,9.95
2023-03-03T11:05:11.760Z,10.90
2023-03-03T11:07:47.005Z,9.77
2023-03-03T11:10:30.454Z,9.93
2023-03-03T11:13:11.161Z,10.45
2023-03-03T11:15:53.060Z,10.35
2023-03-03T11:18:52.085Z,9.98
2023-03-03T11:21:46.922Z,9.30
2023-03-03T11:24:41.112Z,9.80
2023-03-03T11:27:16.794Z,9.55
2023-03-03T11:30:05.275Z,9.63
2023-03-03T11:32:35.171Z,10.02
2023-03-03T11:35:04.918Z,9.70
2023-03-03T11:37:53.078Z,10.13
2023-03-03T11:40:45.033Z,10.70
2023-03-03T11:43:36.629Z,8.00
2023-03-03T11:46:17.152Z,10.25
2023-03-03T11:48:46.630Z,8.90
2023-03-03T11:51:13.802Z,10.32
2023-03-03T11:54:02.053Z,9.50
2023-03-03T11:56:44.839Z,9.75
2023-03-03T11:59:30.750Z,9.30
2023-03-03T12:02:15.017Z,9.75
2023-03-03T12:04:54.464Z,9.38
2023-03-03T12:07:37.919Z,9.50
2023-03-03T12:10:26.999Z,9.23
2023-03-03T12:13:11.444Z,9.40
2023-03-03T12:15:41.250Z,9.65
2023-03-03T12:18:20.618Z,9.27
2023-03-03T12:21:05.993Z,9.98
2023-03-03T12:24:04.861Z,9.68
2023-03-03T12:26:43.968Z,9.07
2023-03-03T12:29:46.937Z,9.65
2023-03-03T12:32:31.330Z,9.18
2023-03-03T12:35:08.122Z,9.77
2023-03-03T12:37:53.570Z,10.18
2023-03-03T12:40:36.544Z,9.10
2023-03-03T12:43:18.741Z,9.40
2023-03-03T12:45:55.418Z,9.52
2023-03-03T12:48:32.473Z,8.75
2023-03-03T12:51:23.538Z,8.68
2023-03-03T12:54:02.546Z,9.10
2023-03-03T12:56:29.537Z,9.02
2023-03-03T12:59:36.357Z,9.05
2023-03-03T13:02:09.130Z,7.88
2023-03-03T13:04:54.575Z,9.45
2023-03-03T13:07:46.246Z,8.63
2023-03-03T13:10:53.280Z,8.33
2023-03-03T13:13:26.014Z,8.43
2023-03-03T13:16:06.169Z,7.95
2023-03-03T13:18:39.565Z,7.65
2023-03-03T13:21:10.935Z,8.13
2023-03-03T13:23:49.513Z,7.63
2023-03-03T13:26:22.295Z,8.20
2023-03-03T13:28:51.987Z,8.18
2023-03-03T13:31:24.676Z,7.72
2023-03-03T13:33:55.410Z,7.72
2023-03-03T13:36:46.342Z,8.63
2023-03-03T13:39:26.117Z,7.90
2023-03-03T13:42:21.017Z,8.07
2023-03-03T13:44:50.009Z,7.32
2023-03-03T13:47:22.988Z,7.20
2023-03-03T13:50:14.745Z,9.18
2023-03-03T13:53:11.905Z,8.20
2023-03-03T13:55:45.288Z,8.48
2023-03-03T13:58:14.971Z,7.68
2023-03-03T14:00:51.797Z,7.85
2023-03-03T14:03:46.592Z,7.40
2023-03-03T14:06:28.993Z,7.75
2023-03-03T14:11:50.688Z,7.70
2023-03-03T14:14:26.681Z,7.85
2023-03-03T14:17:21.343Z,7.65
2023-03-03T14:20:03.763Z,7.72
2023-03-03T14:22:40.883Z,8.43
2023-03-03T14:25:09.313Z,8.43
2023-03-03T14:27:37.743Z,8.48
2023-03-03T14:30:23.109Z,8.50
2023-03-03T14:33:08.432Z,9.13
2023-03-03T14:35:44.074Z,9.20
2023-03-03T14:38:15.368Z,10.13
2023-03-03T14:40:45.549Z,9.70
2023-03-03T14:43:39.674Z,9.40
2023-03-03T14:46:37.971Z,8.05
2023-03-03T14:49:36.554Z,8.88
2023-03-03T14:52:24.934Z,7.70
2023-03-03T14:55:00.461Z,9.35
2023-03-03T14:57:48.725Z,9.45
2023-03-03T15:00:16.740Z,8.80
2023-03-03T15:02:45.065Z,7.60
2023-03-03T15:05:16.985Z,9.63
2023-03-03T15:07:45.205Z,8.63
2023-03-03T15:10:13.612Z,9.18
2023-03-03T15:12:42.063Z,8.90
2023-03-03T15:15:18.500Z,9.80
2023-03-03T15:18:02.853Z,9.35
2023-03-03T15:20:41.187Z,8.43
2023-03-03T15:23:26.301Z,9.77
2023-03-03T15:25:59.128Z,8.93
2023-03-03T15:28:47.356Z,9.35
2023-03-03T15:31:38.461Z,9.52
2023-03-03T15:34:32.950Z,9.60
2023-03-03T15:37:32.797Z,9.40
2023-03-03T15:40:08.680Z,9.70
2023-03-03T15:42:41.485Z,10.07
2023-03-03T15:45:29.859Z,9.90
2023-03-03T15:48:04.071Z,10.60
2023-03-03T15:50:59.493Z,9.98
2023-03-03T15:54:00.609Z,9.50
2023-03-03T15:56:50.817Z,10.00
2023-03-03T15:59:32.885Z,11.07
2023-03-03T16:02:19.556Z,10.80
2023-03-03T16:05:16.364Z,11.48
2023-03-03T16:07:56.119Z,12.50
2023-03-03T16:10:33.024Z,12.20
2023-03-03T16:13:32.143Z,13.00
2023-03-03T16:16:08.300Z,13.18
2023-03-03T16:19:09.150Z,13.23
2023-03-03T16:21:46.568Z,12.52
2023-03-03T16:24:39.614Z,13.13
2023-03-03T16:27:17.225Z,12.60
2023-03-03T16:30:05.247Z,14.07
2023-03-03T16:33:22.092Z,15.32
2023-03-03T16:35:58.935Z,13.77
2023-03-03T16:38:35.834Z,14.52
2023-03-03T16:41:05.351Z,14.20
2023-03-03T16:43:40.481Z,14.55
2023-03-03T16:46:31.629Z,15.48
2023-03-03T16:49:12.450Z,15.93
2023-03-03T16:51:49.772Z,16.25
2023-03-03T16:54:36.156Z,15.60
2023-03-03T16:57:33.304Z,16.38
2023-03-03T17:00:03.072Z,16.40
2023-03-03T17:02:32.716Z,16.90
2023-03-03T17:05:11.654Z,15.52
2023-03-03T17:07:48.868Z,16.30
2023-03-03T17:10:18.822Z,15.88
2023-03-03T17:13:13.289Z,15.57
2023-03-03T17:15:52.309Z,15.10
2023-03-03T17:18:38.890Z,15.02
2023-03-03T17:21:21.718Z,13.88
2023-03-03T17:24:06.831Z,14.82
2023-03-03T17:27:01.105Z,15.93
2023-03-03T17:29:54.346Z,15.32
2023-03-03T17:32:33.489Z,15.57
2023-03-03T17:35:18.892Z,17.17
2023-03-03T17:38:07.259Z,17.35
2023-03-03T17:41:06.097Z,15.90
2023-03-03T17:43:50.144Z,15.07
2023-03-03T17:46:48.401Z,15.43
2023-03-03T17:49:36.919Z,16.08
2023-03-03T17:52:37.061Z,13.65
2023-03-03T17:55:22.944Z,14.40
2023-03-03T17:58:46.649Z,14.77
2023-03-03T18:01:31.854Z,14.00
2023-03-03T18:04:20.681Z,15.50
2023-03-03T18:06:55.521Z,14.68
2023-03-03T18:09:42.275Z,13.95
2023-03-03T18:12:34.138Z,15.35
2023-03-03T18:15:01.107Z,15.68
2023-03-03T18:17:40.715Z,14.48
2023-03-03T18:20:40.320Z,14.75
2023-03-03T18:23:31.924Z,15.32
2023-03-03T18:26:04.023Z,15.10
2023-03-03T18:28:48.886Z,15.45
2023-03-03T18:31:20.367Z,15.93
2023-03-03T18:34:11.450Z,15.85
2023-03-03T18:36:52.190Z,15.55
2023-03-03T18:39:45.829Z,16.00
2023-03-03T18:42:15.611Z,15.82
2023-03-03T18:44:45.985Z,15.40
2023-03-03T18:47:12.972Z,15.70
2023-03-03T18:50:24.463Z,15.13
2023-03-03T18:53:16.235Z,15.57
2023-03-03T18:55:45.334Z,15.10
2023-03-03T18:58:15.718Z,15.25
2023-03-03T19:01:02.418Z,15.02
2023-03-03T19:03:56.956Z,15.93
2023-03-03T19:06:35.733Z,14.55
2023-03-03T19:09:05.866Z,15.02
2023-03-03T19:11:37.607Z,15.48
2023-03-03T19:14:16.925Z,15.20
2023-03-03T19:16:47.004Z,14.43
2023-03-03T19:19:16.596Z,16.00
2023-03-03T19:21:49.392Z,14.73
2023-03-03T19:24:27.033Z,15.85
2023-03-03T19:27:24.395Z,15.25
2023-03-03T19:30:12.494Z,14.32
2023-03-03T19:33:14.715Z,17.73
2023-03-03T19:35:55.946Z,17.08
2023-03-03T19:38:28.890Z,17.55
2023-03-03T19:41:27.808Z,18.65
2023-03-03T19:44:02.722Z,16.17
2023-03-03T19:46:50.727Z,16.40
2023-03-03T19:49:38.829Z,17.55
2023-03-03T19:52:28.887Z,17.55
2023-03-03T19:55:01.786Z,17.77
2023-03-03T19:57:40.200Z,17.77
2023-03-03T20:00:24.605Z,17.75
2023-03-03T20:03:00.542Z,16.65
2023-03-03T20:05:59.186Z,16.48
2023-03-03T20:08:37.671Z,19.27
2023-03-03T20:11:37.933Z,17.48
2023-03-03T20:14:37.244Z,16.80
2023-03-03T20:17:30.812Z,17.60
2023-03-03T20:20:19.541Z,17.52
2023-03-03T20:23:09.002Z,18.67
2023-03-03T20:25:56.647Z,18.63
2023-03-03T20:28:38.752Z,18.83
2023-03-03T20:31:27.447Z,17.38
2023-03-03T20:34:02.898Z,16.33
2023-03-03T20:36:56.571Z,16.50
2023-03-03T20:39:34.880Z,16.30
2023-03-03T20:42:20.613Z,15.60
2023-03-03T20:45:06.108Z,16.80
2023-03-03T20:47:51.067Z,16.02
2023-03-03T20:50:28.793Z,18.15
2023-03-03T20:53:06.319Z,17.33
2023-03-03T20:55:33.132Z,17.70
2023-03-03T20:58:06.058Z,17.90
2023-03-03T21:00:58.800Z,15.18
2023-03-03T21:03:43.601Z,15.85
2023-03-03T21:06:21.075Z,16.13
2023-03-03T21:08:58.251Z,15.50
2023-03-03T21:11:31.340Z,15.77
2023-03-03T21:13:59.437Z,15.52
2023-03-03T21:16:26.367Z,15.50
2023-03-03T21:19:03.236Z,15.27
2023-03-03T21:21:41.244Z,14.88
2023-03-03T21:24:13.210Z,15.18
2023-03-03T21:27:00.306Z,15.82
2023-03-03T21:29:30.500Z,14.65
2023-03-03T21:32:03.048Z,16.10
2023-03-03T21:34:34.272Z,14.85
2023-03-03T21:37:03.364Z,14.77
2023-03-03T21:39:39.999Z,15.68
2023-03-03T21:42:15.073Z,15.55
2023-03-03T21:44:50.176Z,15.68
2023-03-03T21:47:22.429Z,15.88
2023-03-03T21:52:18.553Z,15.43
2023-03-03T21:54:47.081Z,16.30
2023-03-03T21:57:16.521Z,16.00
2023-03-03T21:59:43.489Z,15.57
2023-03-03T22:02:10.950Z,14.38
2023-03-03T22:04:41.395Z,14.82
2023-03-03T22:07:08.888Z,16.50
2023-03-03T22:09:36.336Z,15.93
2023-03-03T22:12:04.000Z,14.95
2023-03-03T22:14:30.932Z,15.35
2023-03-03T22:16:58.910Z,14.50
2023-03-03T22:19:25.854Z,15.02
2023-03-03T22:21:52.773Z,15.88
2023-03-03T22:24:21.101Z,15.02
2023-03-03T22:26:49.130Z,15.98
2023-03-03T22:29:17.235Z,13.98
2023-03-03T22:31:46.516Z,13.65
2023-03-03T22:34:16.321Z,14.90
2023-03-03T22:36:43.233Z,14.90
2023-03-03T22:39:10.613Z,14.05
2023-03-03T22:41:37.482Z,13.95
2023-03-03T22:44:04.508Z,13.20
2023-03-03T22:46:31.466Z,15.27
2023-03-03T22:48:58.379Z,15.23
2023-03-03T22:51:26.294Z,15.68
2023-03-03T22:53:55.329Z,14.20
2023-03-03T22:56:22.226Z,14.45
2023-03-03T22:58:49.706Z,14.07
2023-03-03T23:01:19.110Z,14.38
2023-03-03T23:03:46.103Z,14.25
2023-03-03T23:06:13.024Z,14.38
2023-03-03T23:08:39.905Z,14.23
2023-03-03T23:11:12.054Z,13.55
2023-03-03T23:13:39.103Z,14.95
2023-03-03T23:16:06.452Z,14.60
2023-03-03T23:18:35.805Z,12.80
2023-03-03T23:21:02.867Z,14.73
2023-03-03T23:23:30.666Z,14.50
2023-03-03T23:25:57.726Z,14.10
2023-03-03T23:28:24.695Z,15.63
2023-03-03T23:30:52.451Z,15.35
2023-03-03T23:33:19.894Z,13.98
2023-03-03T23:35:46.919Z,14.07
2023-03-03T23:38:17.839Z,15.10
2023-03-03T23:40:46.950Z,13.15
2023-03-03T23:43:14.820Z,13.18
2023-03-03T23:45:41.919Z,13.18
2023-03-03T23:48:11.254Z,13.27
2023-03-03T23:50:38.285Z,12.65
2023-03-03T23:53:06.123Z,12.25
2023-03-03T23:55:33.111Z,11.90
2023-03-03T23:58:00.050Z,11.35
